Mulberry, Kansas
Current Conditions -  °F | °C
As of 7:55 AM on Thursday 23 Oct 2014 (Local Time) from KPTS Reporting Station
Moderate Rain Moderate Rain  
Wind Chill: 58°   Ceiling: 8000
Heat Index: 58°   Visibility: 7mi
Dew Point: 58°   Wind: 3mph
Humidity: 99%   Direction: 180°S
Pressure: 30.14"   Gusts: NA
Location:  37.56°N, 94.62°W
Report Text: KPTS 231255Z AUTO 18003KT 7SM RA SCT035 BKN080 OVC100 15/15 A3014 RMK AO2 P0002 T01470146
Loading
Personal Weather Stations






























Interactive Weather Map
Tropical Storm Tracking
New forecast layout! Learn more

10-Day Weather Forecast

Advertisements
Track Severe Weather on mobile